Time;durP1;ratioP1;P1;durP2;ratioP2;P2;SDS_P1;SDS_P2;PMS_P1;PMS_P2;Temp;Humidity;BMP_temperature;BMP_pressure;BME280_temperature;BME280_humidity;BME280_pressure;Samples;Min_cycle;Max_cycle;Signal;HPM_P1;HPM_P2
2022/07/24 00:01:53;;;;;;;;;;;21.90;72.00;;;;;;4973601;28;1129;-68
2022/07/24 00:04:19;;;;;;;;;;;21.90;72.00;;;;;;4956177;28;1966;-68
2022/07/24 00:06:44;;;;;;;;;;;21.90;72.10;;;;;;4976681;28;1493;-68
2022/07/24 00:09:09;;;;;;;;;;;21.90;72.80;;;;;;4960295;28;1327;-67
2022/07/24 00:11:35;;;;;;;;;;;21.90;72.00;;;;;;4977526;28;1405;-68
2022/07/24 00:14:00;;;;;;;;;;;21.90;72.00;;;;;;4980612;28;1121;-68
2022/07/24 00:16:26;;;;;;;;;;;21.90;72.00;;;;;;4977211;28;1451;-67
2022/07/24 00:18:51;;;;;;;;;;;21.90;72.80;;;;;;4961628;28;1376;-68
2022/07/24 00:21:17;;;;;;;;;;;21.90;72.00;;;;;;4960936;28;1188;-68
2022/07/24 00:23:43;;;;;;;;;;;21.90;72.10;;;;;;4959747;28;1898;-68
2022/07/24 00:26:09;;;;;;;;;;;21.90;72.10;;;;;;4977005;28;1374;-67
2022/07/24 00:28:34;;;;;;;;;;;21.90;72.00;;;;;;4959655;28;1362;-67
2022/07/24 00:30:59;;;;;;;;;;;21.90;72.10;;;;;;4959870;28;1157;-68
2022/07/24 00:33:25;;;;;;;;;;;21.90;72.10;;;;;;4989527;28;1093;-67
2022/07/24 00:35:50;;;;;;;;;;;21.90;72.10;;;;;;4996134;28;1249;-66
2022/07/24 00:38:16;;;;;;;;;;;21.90;72.10;;;;;;4996375;28;1202;-68
2022/07/24 00:40:41;;;;;;;;;;;21.90;72.10;;;;;;4996543;28;1146;-67
2022/07/24 00:43:07;;;;;;;;;;;21.90;72.10;;;;;;4996076;28;1910;-67
2022/07/24 00:45:33;;;;;;;;;;;21.90;72.10;;;;;;4996205;28;1366;-67
2022/07/24 00:47:58;;;;;;;;;;;21.90;72.10;;;;;;4996283;28;1331;-67
2022/07/24 00:50:24;;;;;;;;;;;21.90;72.10;;;;;;4978599;28;1425;-68
2022/07/24 00:52:50;;;;;;;;;;;21.90;72.10;;;;;;4996093;28;1116;-67
2022/07/24 00:55:15;;;;;;;;;;;21.90;72.10;;;;;;4995823;28;1208;-67
2022/07/24 00:57:43;;;;;;;;;;;21.90;72.10;;;;;;4995819;28;1021;-67
2022/07/24 01:00:09;;;;;;;;;;;21.90;72.10;;;;;;4974695;28;1950;-66
2022/07/24 01:02:34;;;;;;;;;;;21.90;72.90;;;;;;4990604;28;1763;-67
2022/07/24 01:05:00;;;;;;;;;;;21.90;72.10;;;;;;4990137;28;1959;-68
2022/07/24 01:07:26;;;;;;;;;;;21.90;72.10;;;;;;4968134;28;1362;-68
2022/07/24 01:09:51;;;;;;;;;;;21.90;72.10;;;;;;4977627;28;1451;-70
2022/07/24 01:12:17;;;;;;;;;;;21.90;72.10;;;;;;4985784;28;1245;-68
2022/07/24 01:14:42;;;;;;;;;;;21.90;72.10;;;;;;4989384;28;1324;-67
2022/07/24 01:17:07;;;;;;;;;;;21.90;72.20;;;;;;4991268;28;1288;-68
2022/07/24 01:19:33;;;;;;;;;;;21.90;72.20;;;;;;4988350;28;1006;-68
2022/07/24 01:21:58;;;;;;;;;;;21.90;72.20;;;;;;4986494;28;1292;-67
2022/07/24 01:24:24;;;;;;;;;;;21.90;72.20;;;;;;4988685;28;1965;-69
2022/07/24 01:26:49;;;;;;;;;;;21.90;72.20;;;;;;4986474;28;1268;-69
2022/07/24 01:29:15;;;;;;;;;;;21.90;72.20;;;;;;4988172;28;1233;-68
2022/07/24 01:31:40;;;;;;;;;;;21.90;72.20;;;;;;4967194;28;1154;-68
2022/07/24 01:34:06;;;;;;;;;;;21.90;73.00;;;;;;4969425;28;1118;-68
2022/07/24 01:36:31;;;;;;;;;;;21.90;72.20;;;;;;4975071;28;1258;-66
2022/07/24 01:38:57;;;;;;;;;;;21.90;72.20;;;;;;4995392;28;1376;-68
2022/07/24 01:41:22;;;;;;;;;;;21.90;72.20;;;;;;4994078;28;1384;-67
2022/07/24 01:43:47;;;;;;;;;;;21.90;72.20;;;;;;4995128;28;1969;-67
2022/07/24 01:46:13;;;;;;;;;;;21.90;72.20;;;;;;4977649;28;1414;-66
2022/07/24 01:48:39;;;;;;;;;;;21.90;72.20;;;;;;4995111;28;1281;-67
2022/07/24 01:51:05;;;;;;;;;;;21.90;72.20;;;;;;4977836;28;1356;-65
2022/07/24 01:53:30;;;;;;;;;;;21.90;72.20;;;;;;4994959;28;1340;-66
2022/07/24 01:55:56;;;;;;;;;;;21.90;72.20;;;;;;4994780;28;1352;-68
2022/07/24 01:58:21;;;;;;;;;;;21.90;72.20;;;;;;4995004;28;1343;-67
2022/07/24 02:00:46;;;;;;;;;;;21.90;72.20;;;;;;4995056;28;1244;-67
2022/07/24 02:03:12;;;;;;;;;;;21.90;72.20;;;;;;4993651;28;1903;-67
2022/07/24 02:05:37;;;;;;;;;;;21.90;72.30;;;;;;4977106;28;1337;-67
2022/07/24 02:08:03;;;;;;;;;;;21.90;72.30;;;;;;4990920;28;1429;-66
2022/07/24 02:10:28;;;;;;;;;;;21.90;72.20;;;;;;4942048;28;1617;-67
2022/07/24 02:12:54;;;;;;;;;;;21.90;72.20;;;;;;4978245;28;1261;-66
2022/07/24 02:15:19;;;;;;;;;;;21.90;72.20;;;;;;4975036;28;1347;-65
2022/07/24 02:17:46;;;;;;;;;;;21.90;72.20;;;;;;4958004;28;1239;-67
2022/07/24 02:20:11;;;;;;;;;;;21.90;72.20;;;;;;4977141;28;1105;-65
2022/07/24 02:22:36;;;;;;;;;;;21.90;72.20;;;;;;4982604;28;1253;-67
2022/07/24 02:25:02;;;;;;;;;;;21.90;72.30;;;;;;4985088;28;1961;-66
2022/07/24 02:27:28;;;;;;;;;;;21.90;72.30;;;;;;4995515;28;1194;-67
2022/07/24 02:29:53;;;;;;;;;;;21.80;72.20;;;;;;4989816;28;1249;-67
2022/07/24 02:32:18;;;;;;;;;;;21.90;72.30;;;;;;4993442;28;1236;-67
2022/07/24 02:34:44;;;;;;;;;;;21.90;72.30;;;;;;4967970;28;1300;-68
2022/07/24 02:37:09;;;;;;;;;;;21.90;72.30;;;;;;4990941;28;1249;-66
2022/07/24 02:39:35;;;;;;;;;;;21.90;72.30;;;;;;4985117;28;1249;-66
2022/07/24 02:42:00;;;;;;;;;;;21.90;72.30;;;;;;4986100;28;1242;-66
2022/07/24 02:44:26;;;;;;;;;;;21.90;72.30;;;;;;4993542;28;1981;-67
2022/07/24 02:46:51;;;;;;;;;;;21.90;72.30;;;;;;4991543;28;1418;-67
2022/07/24 02:49:16;;;;;;;;;;;21.90;72.30;;;;;;4957868;28;1358;-70
2022/07/24 02:51:42;;;;;;;;;;;21.90;72.30;;;;;;4979810;28;1251;-70
2022/07/24 02:54:07;;;;;;;;;;;21.90;72.30;;;;;;4965547;28;1356;-69
2022/07/24 02:56:33;;;;;;;;;;;21.90;72.40;;;;;;4957928;28;1279;-69
2022/07/24 02:58:58;;;;;;;;;;;21.90;72.40;;;;;;4958086;28;1375;-68
2022/07/24 03:01:24;;;;;;;;;;;21.90;72.40;;;;;;4975391;28;1388;-69
2022/07/24 03:03:49;;;;;;;;;;;21.90;72.40;;;;;;4974884;28;1898;-67
2022/07/24 03:06:15;;;;;;;;;;;21.90;72.40;;;;;;4977159;28;1395;-67
2022/07/24 03:08:40;;;;;;;;;;;21.90;72.40;;;;;;4976894;28;1010;-67
2022/07/24 03:11:05;;;;;;;;;;;21.90;72.40;;;;;;4977918;28;1084;-67
2022/07/24 03:13:31;;;;;;;;;;;21.90;72.40;;;;;;4977008;28;1018;-68
2022/07/24 03:15:56;;;;;;;;;;;21.90;72.40;;;;;;4956946;28;1363;-67
2022/07/24 03:18:22;;;;;;;;;;;21.90;72.40;;;;;;4974450;28;1267;-67
2022/07/24 03:20:47;;;;;;;;;;;21.90;72.40;;;;;;4976358;28;1086;-67
2022/07/24 03:23:13;;;;;;;;;;;21.90;72.40;;;;;;4974788;28;1903;-67
2022/07/24 03:25:38;;;;;;;;;;;21.90;72.40;;;;;;4974009;28;1347;-67
2022/07/24 03:28:03;;;;;;;;;;;21.90;72.40;;;;;;4974284;28;1151;-65
2022/07/24 03:30:29;;;;;;;;;;;21.90;72.40;;;;;;4957101;28;1382;-66
2022/07/24 03:32:54;;;;;;;;;;;21.90;72.40;;;;;;4982499;28;1125;-66
2022/07/24 03:35:20;;;;;;;;;;;21.90;72.50;;;;;;4991160;28;1340;-67
2022/07/24 03:37:45;;;;;;;;;;;21.90;72.50;;;;;;4956609;28;1537;-67
2022/07/24 03:40:11;;;;;;;;;;;21.90;72.40;;;;;;4974330;28;1308;-67
2022/07/24 03:42:36;;;;;;;;;;;21.90;72.40;;;;;;4977986;28;1198;-67
2022/07/24 03:45:02;;;;;;;;;;;21.90;72.50;;;;;;4977766;28;1915;-67
2022/07/24 03:47:27;;;;;;;;;;;21.90;72.50;;;;;;4977964;28;1224;-69
2022/07/24 03:49:53;;;;;;;;;;;21.90;72.40;;;;;;4960694;28;1254;-70
2022/07/24 03:52:18;;;;;;;;;;;21.90;72.50;;;;;;4960474;28;1335;-69
2022/07/24 03:54:44;;;;;;;;;;;21.90;72.50;;;;;;4977481;28;1285;-70
2022/07/24 03:57:09;;;;;;;;;;;21.90;72.50;;;;;;4960323;28;1304;-68
2022/07/24 03:59:35;;;;;;;;;;;21.90;72.50;;;;;;4977870;28;1326;-68
2022/07/24 04:02:00;;;;;;;;;;;21.80;72.40;;;;;;4960493;28;1054;-68
2022/07/24 04:04:25;;;;;;;;;;;21.90;72.50;;;;;;4977221;28;1886;-67
2022/07/24 04:06:51;;;;;;;;;;;21.90;72.50;;;;;;4985032;28;1363;-67
2022/07/24 04:09:16;;;;;;;;;;;21.90;72.50;;;;;;4982958;28;1240;-68
2022/07/24 04:11:44;;;;;;;;;;;21.90;72.50;;;;;;4977494;28;1320;-67
2022/07/24 04:14:09;;;;;;;;;;;21.90;72.50;;;;;;4986285;28;1778;-67
2022/07/24 04:16:35;;;;;;;;;;;21.90;72.50;;;;;;4986960;28;1411;-68
2022/07/24 04:19:00;;;;;;;;;;;21.90;72.50;;;;;;4994679;28;1260;-68
2022/07/24 04:21:26;;;;;;;;;;;21.90;72.50;;;;;;4989476;28;1346;-67
2022/07/24 04:23:51;;;;;;;;;;;21.80;72.40;;;;;;4959635;28;1970;-68
2022/07/24 04:26:17;;;;;;;;;;;21.90;72.50;;;;;;4977600;28;1352;-69
2022/07/24 04:28:43;;;;;;;;;;;21.90;72.50;;;;;;4977652;28;1425;-69
2022/07/24 04:31:09;;;;;;;;;;;21.80;72.50;;;;;;4977594;28;1332;-68
2022/07/24 04:33:34;;;;;;;;;;;21.90;72.50;;;;;;4991436;28;1328;-69
2022/07/24 04:36:00;;;;;;;;;;;21.90;72.60;;;;;;4996820;28;1309;-69
2022/07/24 04:38:25;;;;;;;;;;;21.80;72.50;;;;;;4995635;28;1330;-65
2022/07/24 04:40:51;;;;;;;;;;;21.90;72.60;;;;;;4995546;28;1395;-65
2022/07/24 04:43:16;;;;;;;;;;;21.80;72.50;;;;;;4996888;28;1906;-65
2022/07/24 04:45:41;;;;;;;;;;;21.80;72.50;;;;;;4996443;28;1331;-65
2022/07/24 04:48:07;;;;;;;;;;;21.90;72.50;;;;;;4995593;28;1305;-65
2022/07/24 04:50:33;;;;;;;;;;;21.90;72.60;;;;;;4996709;28;1301;-65
2022/07/24 04:52:58;;;;;;;;;;;21.80;72.50;;;;;;4995847;28;1253;-64
2022/07/24 04:55:24;;;;;;;;;;;21.80;72.50;;;;;;4999018;28;1290;-65
2022/07/24 04:57:49;;;;;;;;;;;21.80;72.50;;;;;;4996595;28;1361;-64
2022/07/24 05:00:15;;;;;;;;;;;21.80;72.50;;;;;;4996555;28;1277;-64
2022/07/24 05:02:40;;;;;;;;;;;21.80;72.50;;;;;;4995166;28;1500;-67
2022/07/24 05:05:06;;;;;;;;;;;21.80;72.50;;;;;;4995021;28;1895;-66
2022/07/24 05:07:31;;;;;;;;;;;21.80;72.60;;;;;;4996179;28;1358;-66
2022/07/24 05:09:57;;;;;;;;;;;21.80;72.50;;;;;;4977173;28;1292;-65
2022/07/24 05:12:22;;;;;;;;;;;21.80;72.50;;;;;;4979821;28;1320;-67
2022/07/24 05:14:48;;;;;;;;;;;21.80;72.50;;;;;;4959030;28;1349;-67
2022/07/24 05:17:13;;;;;;;;;;;21.80;72.50;;;;;;4976705;28;1387;-68
2022/07/24 05:19:39;;;;;;;;;;;21.80;72.50;;;;;;4961146;28;1253;-68
2022/07/24 05:22:04;;;;;;;;;;;21.90;72.60;;;;;;4976621;28;1323;-67
2022/07/24 05:24:30;;;;;;;;;;;21.80;72.50;;;;;;4975844;28;1899;-65
2022/07/24 05:26:55;;;;;;;;;;;21.80;72.50;;;;;;4976352;28;1089;-66
2022/07/24 05:29:20;;;;;;;;;;;21.80;72.50;;;;;;4976443;28;1412;-65
2022/07/24 05:31:46;;;;;;;;;;;21.80;72.50;;;;;;4989131;28;1014;-65
2022/07/24 05:34:12;;;;;;;;;;;21.80;72.50;;;;;;4990590;28;1765;-63
2022/07/24 05:36:37;;;;;;;;;;;21.80;72.50;;;;;;4989320;28;1900;-62
2022/07/24 05:39:03;;;;;;;;;;;21.80;72.60;;;;;;4990120;28;1302;-63
2022/07/24 05:41:28;;;;;;;;;;;21.80;72.50;;;;;;4983319;28;1109;-62
2022/07/24 05:43:54;;;;;;;;;;;21.80;72.60;;;;;;4975486;28;1914;-64
2022/07/24 05:46:19;;;;;;;;;;;21.80;72.60;;;;;;4975615;28;1312;-62
2022/07/24 05:48:45;;;;;;;;;;;21.80;72.60;;;;;;4975828;28;1317;-64
2022/07/24 05:51:10;;;;;;;;;;;21.80;72.60;;;;;;4976050;28;1261;-64
2022/07/24 05:53:36;;;;;;;;;;;21.80;72.60;;;;;;4975399;28;1045;-65
2022/07/24 05:56:01;;;;;;;;;;;21.80;72.60;;;;;;4975625;28;1397;-70
2022/07/24 05:58:26;;;;;;;;;;;21.80;72.60;;;;;;4975590;28;1337;-66
2022/07/24 06:00:52;;;;;;;;;;;21.80;72.60;;;;;;4975466;28;1065;-67
2022/07/24 06:03:17;;;;;;;;;;;21.80;72.60;;;;;;4957918;28;1903;-67
2022/07/24 06:05:43;;;;;;;;;;;21.80;72.60;;;;;;4975157;28;1396;-67
2022/07/24 06:08:08;;;;;;;;;;;21.80;72.70;;;;;;4975396;28;1566;-63
2022/07/24 06:10:34;;;;;;;;;;;21.80;72.60;;;;;;4975261;28;1325;-64
2022/07/24 06:12:59;;;;;;;;;;;21.80;72.60;;;;;;4978550;28;1301;-64
2022/07/24 06:15:25;;;;;;;;;;;21.80;72.60;;;;;;4957503;28;1265;-63
2022/07/24 06:17:50;;;;;;;;;;;21.80;72.60;;;;;;4975726;28;1400;-63
2022/07/24 06:20:16;;;;;;;;;;;21.80;72.60;;;;;;4959985;28;1133;-64
2022/07/24 06:22:42;;;;;;;;;;;21.80;72.60;;;;;;4974857;28;1266;-63
2022/07/24 06:25:08;;;;;;;;;;;21.80;72.60;;;;;;4957249;28;1956;-63
2022/07/24 06:27:36;;;;;;;;;;;21.80;72.60;;;;;;4975022;28;1380;-64
2022/07/24 06:30:01;;;;;;;;;;;21.80;72.70;;;;;;4957530;28;1542;-64
2022/07/24 06:32:27;;;;;;;;;;;21.80;72.70;;;;;;4979788;28;1379;-65
2022/07/24 06:34:52;;;;;;;;;;;21.80;72.60;;;;;;4993723;28;1294;-64
2022/07/24 06:37:18;;;;;;;;;;;21.80;72.70;;;;;;4994457;28;1331;-64
2022/07/24 06:39:43;;;;;;;;;;;21.80;72.70;;;;;;4994244;28;1246;-66
2022/07/24 06:42:09;;;;;;;;;;;21.80;72.70;;;;;;4994356;28;1335;-65
2022/07/24 06:44:36;;;;;;;;;;;21.80;72.70;;;;;;4994092;28;1907;-64
2022/07/24 06:47:01;;;;;;;;;;;21.80;72.70;;;;;;4994044;28;1408;-64
2022/07/24 06:49:27;;;;;;;;;;;21.80;72.70;;;;;;4994284;28;1273;-64
2022/07/24 06:51:52;;;;;;;;;;;21.80;72.70;;;;;;4993756;28;1373;-65
2022/07/24 06:54:18;;;;;;;;;;;21.80;72.70;;;;;;4993590;28;1304;-66
2022/07/24 06:56:43;;;;;;;;;;;21.80;72.70;;;;;;4992645;28;1411;-66
2022/07/24 06:59:09;;;;;;;;;;;21.80;72.70;;;;;;4976369;28;1377;-68
2022/07/24 07:01:34;;;;;;;;;;;21.80;72.70;;;;;;4992632;28;1364;-67
2022/07/24 07:04:00;;;;;;;;;;;21.80;72.70;;;;;;4989982;28;1942;-67
2022/07/24 07:06:25;;;;;;;;;;;21.80;72.70;;;;;;4991447;28;1432;-67
2022/07/24 07:08:51;;;;;;;;;;;21.80;72.70;;;;;;4985810;28;1234;-67
2022/07/24 07:11:16;;;;;;;;;;;21.80;72.80;;;;;;4969789;28;1408;-67
2022/07/24 07:13:41;;;;;;;;;;;21.80;72.70;;;;;;4977268;28;1127;-64
2022/07/24 07:16:07;;;;;;;;;;;21.80;72.70;;;;;;4982853;28;1281;-65
2022/07/24 07:18:35;;;;;;;;;;;21.80;72.70;;;;;;4980374;28;1128;-66
2022/07/24 07:21:01;;;;;;;;;;;21.80;72.70;;;;;;4975857;28;1212;-67
2022/07/24 07:23:26;;;;;;;;;;;21.80;72.70;;;;;;4977681;28;2183;-66
2022/07/24 07:25:53;;;;;;;;;;;21.80;72.70;;;;;;4983012;28;2144;-65
2022/07/24 07:28:18;;;;;;;;;;;21.80;72.70;;;;;;4972965;28;1253;-67
2022/07/24 07:30:44;;;;;;;;;;;21.80;72.70;;;;;;4973076;28;1332;-68
2022/07/24 07:33:09;;;;;;;;;;;21.80;72.70;;;;;;4966452;28;1150;-67
2022/07/24 07:35:35;;;;;;;;;;;21.80;72.70;;;;;;4974638;28;1309;-68
2022/07/24 07:38:00;;;;;;;;;;;21.80;72.70;;;;;;4992615;28;1336;-68
2022/07/24 07:40:26;;;;;;;;;;;21.80;72.70;;;;;;4992301;28;1360;-68
2022/07/24 07:42:51;;;;;;;;;;;21.80;72.70;;;;;;4992586;28;1353;-67
2022/07/24 07:45:16;;;;;;;;;;;21.80;72.70;;;;;;4992074;28;1918;-68
2022/07/24 07:47:42;;;;;;;;;;;21.80;72.70;;;;;;4992736;28;1333;-68
2022/07/24 07:50:08;;;;;;;;;;;21.80;72.70;;;;;;4991267;28;1108;-66
2022/07/24 07:52:33;;;;;;;;;;;21.80;72.70;;;;;;4991203;28;1302;-67
2022/07/24 07:54:59;;;;;;;;;;;21.80;72.70;;;;;;4991851;28;1409;-67
2022/07/24 07:57:24;;;;;;;;;;;21.80;72.70;;;;;;4992367;28;1259;-67
2022/07/24 07:59:49;;;;;;;;;;;21.80;72.70;;;;;;4990566;28;1356;-65
2022/07/24 08:02:15;;;;;;;;;;;21.80;72.70;;;;;;4992976;28;1285;-68
2022/07/24 08:04:41;;;;;;;;;;;21.80;72.70;;;;;;4992705;28;1910;-68
2022/07/24 08:07:06;;;;;;;;;;;21.80;73.50;;;;;;4985575;28;1342;-67
2022/07/24 08:09:32;;;;;;;;;;;21.80;72.80;;;;;;4976946;28;1338;-68
2022/07/24 08:11:57;;;;;;;;;;;21.80;72.80;;;;;;4974124;28;1038;-68
2022/07/24 08:14:22;;;;;;;;;;;21.80;72.70;;;;;;4975973;28;1264;-68
2022/07/24 08:16:48;;;;;;;;;;;21.80;72.80;;;;;;4973693;28;1348;-68
2022/07/24 08:19:13;;;;;;;;;;;21.80;72.80;;;;;;4975258;28;1285;-67
2022/07/24 08:21:39;;;;;;;;;;;21.80;72.80;;;;;;4973534;28;1289;-67
2022/07/24 08:24:04;;;;;;;;;;;21.80;72.80;;;;;;4973378;28;1898;-68
2022/07/24 08:26:30;;;;;;;;;;;21.80;72.80;;;;;;4974521;28;1271;-67
2022/07/24 08:28:57;;;;;;;;;;;21.80;72.80;;;;;;4977044;28;1307;-68
2022/07/24 08:31:24;;;;;;;;;;;21.80;72.80;;;;;;4960115;28;1090;-68
2022/07/24 08:33:49;;;;;;;;;;;21.80;72.80;;;;;;4992569;28;1230;-67
2022/07/24 08:36:15;;;;;;;;;;;21.80;72.80;;;;;;4996231;28;1298;-68
2022/07/24 08:38:41;;;;;;;;;;;21.80;72.80;;;;;;4996405;28;1205;-67
2022/07/24 08:41:07;;;;;;;;;;;21.80;72.80;;;;;;4979376;28;1693;-67
2022/07/24 08:43:32;;;;;;;;;;;21.80;72.80;;;;;;4995253;28;1977;-67
2022/07/24 08:45:58;;;;;;;;;;;21.80;72.80;;;;;;4996197;28;1334;-67
2022/07/24 08:48:24;;;;;;;;;;;21.80;72.80;;;;;;4995179;28;1159;-67
2022/07/24 08:50:49;;;;;;;;;;;21.80;72.80;;;;;;4996151;28;1259;-67
2022/07/24 08:53:15;;;;;;;;;;;21.80;72.80;;;;;;4995055;28;1319;-67
2022/07/24 08:55:40;;;;;;;;;;;21.80;72.80;;;;;;4994541;28;1229;-66
2022/07/24 08:58:05;;;;;;;;;;;21.80;72.80;;;;;;4995974;28;1296;-68
2022/07/24 09:00:31;;;;;;;;;;;21.80;72.80;;;;;;4996017;28;1375;-68
2022/07/24 09:02:57;;;;;;;;;;;21.80;72.80;;;;;;4995854;28;1914;-68
2022/07/24 09:05:22;;;;;;;;;;;21.80;72.80;;;;;;4995374;28;1376;-67
2022/07/24 09:07:47;;;;;;;;;;;21.80;72.80;;;;;;4981066;28;1589;-67
2022/07/24 09:10:14;;;;;;;;;;;21.80;72.80;;;;;;4959097;28;1382;-66
2022/07/24 09:12:41;;;;;;;;;;;21.80;72.80;;;;;;4979857;28;1357;-67
2022/07/24 09:15:26;;;;;;;;;;;21.80;72.80;;;;;;4976017;28;1378;-67
2022/07/24 09:17:52;;;;;;;;;;;21.80;72.80;;;;;;4976139;28;1376;-66
2022/07/24 09:20:17;;;;;;;;;;;21.80;72.80;;;;;;4978604;28;1105;-67
2022/07/24 09:22:43;;;;;;;;;;;21.80;72.80;;;;;;4976273;28;1403;-66
2022/07/24 09:25:09;;;;;;;;;;;21.80;72.80;;;;;;4975773;28;1899;-69
2022/07/24 09:27:38;;;;;;;;;;;21.80;72.80;;;;;;4959034;28;1385;-69
2022/07/24 09:30:04;;;;;;;;;;;21.80;72.80;;;;;;4976165;28;1345;-69
2022/07/24 09:32:30;;;;;;;;;;;21.80;72.80;;;;;;4980977;28;1316;-70
2022/07/24 09:34:55;;;;;;;;;;;21.80;72.80;;;;;;4995106;28;1295;-70
2022/07/24 09:37:21;;;;;;;;;;;21.80;72.80;;;;;;4995449;28;1277;-70
2022/07/24 09:39:47;;;;;;;;;;;21.80;72.80;;;;;;4994998;28;1427;-69
2022/07/24 09:42:12;;;;;;;;;;;21.80;72.80;;;;;;4994228;28;1299;-69
2022/07/24 09:44:38;;;;;;;;;;;21.80;72.80;;;;;;4993801;28;1907;-68
2022/07/24 09:47:10;;;;;;;;;;;21.80;72.80;;;;;;4995182;28;1308;-70
2022/07/24 09:49:36;;;;;;;;;;;21.80;72.80;;;;;;4993998;28;1357;-67
2022/07/24 09:52:04;;;;;;;;;;;21.80;72.80;;;;;;4995194;28;1402;-68
2022/07/24 09:54:30;;;;;;;;;;;21.80;72.80;;;;;;4994806;28;1336;-67
2022/07/24 09:57:12;;;;;;;;;;;21.80;72.80;;;;;;4995121;28;1358;-68
2022/07/24 09:59:37;;;;;;;;;;;21.80;72.80;;;;;;4993643;28;1364;-67
2022/07/24 10:02:03;;;;;;;;;;;21.80;72.80;;;;;;4993655;28;1285;-67
2022/07/24 10:04:28;;;;;;;;;;;21.80;72.90;;;;;;4993553;28;1894;-68
2022/07/24 10:06:53;;;;;;;;;;;21.80;72.80;;;;;;4994742;28;1403;-67
2022/07/24 10:09:19;;;;;;;;;;;21.80;72.80;;;;;;4980352;28;1329;-69
2022/07/24 10:11:44;;;;;;;;;;;21.80;72.80;;;;;;4975262;28;1292;-68
2022/07/24 10:14:11;;;;;;;;;;;21.80;72.80;;;;;;4960536;28;1101;-68
2022/07/24 10:16:37;;;;;;;;;;;21.80;72.80;;;;;;4975306;28;1473;-68
2022/07/24 10:19:03;;;;;;;;;;;21.80;72.80;;;;;;4959542;28;1376;-68
2022/07/24 10:21:29;;;;;;;;;;;21.80;72.80;;;;;;4975351;28;1307;-68
2022/07/24 10:24:07;;;;;;;;;;;21.80;72.80;;;;;;4974765;28;1907;-68
2022/07/24 10:26:36;;;;;;;;;;;21.80;72.80;;;;;;4974883;28;1296;-68
2022/07/24 10:29:07;;;;;;;;;;;21.80;72.80;;;;;;4957853;28;1261;-68
2022/07/24 10:31:36;;;;;;;;;;;21.80;72.90;;;;;;4975547;28;1265;-68
2022/07/24 10:34:04;;;;;;;;;;;21.80;72.80;;;;;;4992090;28;1158;-68
2022/07/24 10:36:29;;;;;;;;;;;21.80;72.80;;;;;;4993221;28;1396;-68
2022/07/24 10:39:07;;;;;;;;;;;21.80;72.80;;;;;;4993111;28;1300;-67
2022/07/24 10:41:33;;;;;;;;;;;21.80;72.80;;;;;;4993225;28;1252;-67
2022/07/24 10:44:11;;;;;;;;;;;21.80;72.80;;;;;;4986212;28;2044;-65
2022/07/24 10:46:55;;;;;;;;;;;21.80;73.60;;;;;;4993175;28;1251;-66
2022/07/24 10:49:33;;;;;;;;;;;21.80;72.90;;;;;;4985833;28;1092;-68
2022/07/24 10:51:59;;;;;;;;;;;21.80;72.80;;;;;;4967591;28;1333;-68
2022/07/24 10:54:25;;;;;;;;;;;21.80;72.90;;;;;;4989152;28;1282;-68
2022/07/24 10:56:50;;;;;;;;;;;21.80;72.90;;;;;;4960391;28;1347;-69
2022/07/24 10:59:16;;;;;;;;;;;21.80;72.90;;;;;;4988251;28;1100;-69
2022/07/24 11:01:44;;;;;;;;;;;21.80;72.90;;;;;;4970758;28;1360;-68
2022/07/24 11:04:18;;;;;;;;;;;21.80;72.80;;;;;;4974094;28;1907;-66
2022/07/24 11:06:47;;;;;;;;;;;21.80;72.80;;;;;;4980988;28;1347;-67
2022/07/24 11:09:13;;;;;;;;;;;21.80;72.90;;;;;;4963100;28;1323;-68
2022/07/24 11:11:42;;;;;;;;;;;21.80;72.90;;;;;;4957148;28;1355;-68
2022/07/24 11:14:08;;;;;;;;;;;21.80;72.80;;;;;;4982285;28;2303;-67
2022/07/24 11:16:33;;;;;;;;;;;21.80;72.90;;;;;;4980407;28;1218;-66
2022/07/24 11:18:59;;;;;;;;;;;21.80;72.80;;;;;;4993559;28;1147;-68
2022/07/24 11:21:28;;;;;;;;;;;21.80;72.80;;;;;;4993824;28;911;-67
2022/07/24 11:24:12;;;;;;;;;;;21.80;72.90;;;;;;4993284;28;1963;-66
2022/07/24 11:26:40;;;;;;;;;;;21.80;72.90;;;;;;4993894;28;1314;-67
2022/07/24 11:29:12;;;;;;;;;;;21.80;72.90;;;;;;4993588;28;837;-66
2022/07/24 11:31:38;;;;;;;;;;;21.80;72.90;;;;;;4987423;28;2290;-67
2022/07/24 11:34:03;;;;;;;;;;;21.80;72.90;;;;;;4971117;28;1214;-67
2022/07/24 11:36:29;;;;;;;;;;;21.80;72.90;;;;;;4981574;28;1225;-68
2022/07/24 11:38:54;;;;;;;;;;;21.80;72.90;;;;;;4974142;28;1081;-66
2022/07/24 11:41:20;;;;;;;;;;;21.80;72.90;;;;;;4989188;28;1011;-66
2022/07/24 11:43:51;;;;;;;;;;;21.80;72.90;;;;;;4973886;28;1954;-67
2022/07/24 11:46:33;;;;;;;;;;;21.80;72.90;;;;;;4973952;28;1197;-67
2022/07/24 11:49:05;;;;;;;;;;;21.80;72.90;;;;;;4974016;28;1069;-66
2022/07/24 11:51:30;;;;;;;;;;;21.80;72.80;;;;;;4973823;28;804;-67
2022/07/24 11:53:56;;;;;;;;;;;21.80;72.90;;;;;;4987317;28;2267;-67
2022/07/24 11:56:21;;;;;;;;;;;21.80;72.90;;;;;;4985707;28;1577;-67
2022/07/24 11:58:47;;;;;;;;;;;21.80;72.90;;;;;;4991087;28;1269;-67
2022/07/24 12:01:19;;;;;;;;;;;21.80;72.90;;;;;;4991841;28;1100;-67
2022/07/24 12:03:49;;;;;;;;;;;21.80;72.90;;;;;;4995313;28;1948;-67
2022/07/24 12:06:14;;;;;;;;;;;21.80;72.90;;;;;;4978480;28;1123;-67
2022/07/24 12:08:40;;;;;;;;;;;21.80;72.90;;;;;;4978541;28;2280;-68
2022/07/24 12:11:06;;;;;;;;;;;21.80;72.90;;;;;;4996985;28;1013;-67
2022/07/24 12:13:31;;;;;;;;;;;21.80;72.90;;;;;;4994439;28;1933;-65
2022/07/24 12:15:57;;;;;;;;;;;21.80;72.90;;;;;;4979053;28;1299;-65
2022/07/24 12:18:23;;;;;;;;;;;21.80;72.90;;;;;;4970113;28;1333;-66
2022/07/24 12:20:49;;;;;;;;;;;21.80;72.90;;;;;;4994785;28;1563;-66
2022/07/24 12:23:15;;;;;;;;;;;21.80;72.90;;;;;;4985457;28;1962;-67
2022/07/24 12:25:41;;;;;;;;;;;21.80;72.90;;;;;;4990697;28;2055;-68
2022/07/24 12:28:13;;;;;;;;;;;21.80;72.90;;;;;;4972214;28;1249;-67
2022/07/24 12:30:42;;;;;;;;;;;21.80;72.90;;;;;;4992974;28;1248;-67
2022/07/24 12:33:08;;;;;;;;;;;21.80;72.90;;;;;;4992476;28;1240;-68
2022/07/24 12:35:54;;;;;;;;;;;21.80;72.90;;;;;;4993501;28;1387;-65
2022/07/24 12:38:29;;;;;;;;;;;21.80;72.90;;;;;;4976602;28;1294;-66
2022/07/24 12:41:02;;;;;;;;;;;21.80;72.90;;;;;;4991819;28;876;-67
2022/07/24 12:43:28;;;;;;;;;;;21.80;72.90;;;;;;4978633;28;2169;-67
2022/07/24 12:46:09;;;;;;;;;;;21.80;72.90;;;;;;4995592;28;1362;-67
2022/07/24 12:48:34;;;;;;;;;;;21.80;72.90;;;;;;4978634;28;1199;-66
2022/07/24 12:51:01;;;;;;;;;;;21.80;72.90;;;;;;4978799;28;789;-67
2022/07/24 12:53:27;;;;;;;;;;;21.80;72.90;;;;;;4992412;28;1105;-67
2022/07/24 12:56:03;;;;;;;;;;;21.80;72.90;;;;;;4978778;28;1308;-66
2022/07/24 12:58:28;;;;;;;;;;;21.80;72.90;;;;;;4996206;28;848;-67
2022/07/24 13:00:57;;;;;;;;;;;21.80;72.90;;;;;;4961828;28;864;-67
2022/07/24 13:03:26;;;;;;;;;;;21.80;72.90;;;;;;4978780;28;1963;-67
2022/07/24 13:05:54;;;;;;;;;;;21.80;72.90;;;;;;4995974;28;1175;-65
2022/07/24 13:08:19;;;;;;;;;;;21.80;72.90;;;;;;4978668;28;999;-66
2022/07/24 13:10:45;;;;;;;;;;;21.80;72.90;;;;;;4996123;28;1022;-67
2022/07/24 13:13:10;;;;;;;;;;;21.90;72.90;;;;;;4994763;28;1199;-67
2022/07/24 13:15:35;;;;;;;;;;;21.80;72.90;;;;;;4995608;28;1300;-66
2022/07/24 13:18:01;;;;;;;;;;;21.90;72.90;;;;;;4978521;28;805;-67
2022/07/24 13:20:26;;;;;;;;;;;21.90;72.90;;;;;;4995623;28;1172;-66
2022/07/24 13:22:52;;;;;;;;;;;21.90;72.90;;;;;;4995751;28;801;-65
2022/07/24 13:25:17;;;;;;;;;;;21.90;73.00;;;;;;4995116;28;1906;-66
2022/07/24 13:27:43;;;;;;;;;;;21.90;73.00;;;;;;4995445;28;812;-66
2022/07/24 13:30:09;;;;;;;;;;;21.80;72.90;;;;;;4995374;28;1034;-67
2022/07/24 13:32:34;;;;;;;;;;;21.90;72.90;;;;;;4977888;28;1284;-67
2022/07/24 13:34:59;;;;;;;;;;;21.90;72.90;;;;;;4994857;28;1251;-66
2022/07/24 13:37:26;;;;;;;;;;;21.90;73.00;;;;;;4995405;28;1056;-66
2022/07/24 13:39:51;;;;;;;;;;;21.90;73.00;;;;;;4995139;28;797;-67
2022/07/24 13:42:17;;;;;;;;;;;21.90;72.90;;;;;;4995143;28;918;-66
2022/07/24 13:44:42;;;;;;;;;;;21.90;73.00;;;;;;4994792;28;1910;-66
2022/07/24 13:47:08;;;;;;;;;;;21.90;73.00;;;;;;4995361;28;966;-66
2022/07/24 13:49:33;;;;;;;;;;;21.90;72.90;;;;;;4995282;28;864;-67
2022/07/24 13:51:59;;;;;;;;;;;21.90;72.90;;;;;;4990966;28;1181;-66
2022/07/24 13:54:24;;;;;;;;;;;21.90;72.90;;;;;;4994123;28;1216;-67
2022/07/24 13:56:50;;;;;;;;;;;21.90;72.90;;;;;;4995226;28;982;-66
2022/07/24 13:59:15;;;;;;;;;;;21.90;72.90;;;;;;4994922;28;777;-66
2022/07/24 14:01:41;;;;;;;;;;;21.90;72.90;;;;;;4977734;28;915;-66
2022/07/24 14:04:08;;;;;;;;;;;21.90;72.90;;;;;;5003598;23;2033;-73
2022/07/24 14:06:34;;;;;;;;;;;21.90;72.90;;;;;;4994642;28;915;-73
2022/07/24 14:09:00;;;;;;;;;;;21.90;72.90;;;;;;4993339;28;1308;-73
2022/07/24 14:11:25;;;;;;;;;;;21.90;72.90;;;;;;4993146;28;1294;-72
2022/07/24 14:13:51;;;;;;;;;;;21.90;72.90;;;;;;4993975;28;1284;-73
2022/07/24 14:16:16;;;;;;;;;;;21.90;72.90;;;;;;4996166;28;983;-73
2022/07/24 14:18:42;;;;;;;;;;;21.90;72.90;;;;;;4995169;28;1103;-73
2022/07/24 14:21:07;;;;;;;;;;;21.80;72.90;;;;;;4994539;28;863;-73
2022/07/24 14:23:33;;;;;;;;;;;21.90;72.90;;;;;;4994206;28;1890;-73
2022/07/24 14:25:58;;;;;;;;;;;21.90;72.90;;;;;;4993723;28;823;-73